createdAt,value
2022-08-16T00:00:04.194Z,61.02
2022-08-16T00:02:31.588Z,60.64
2022-08-16T00:04:59.783Z,60.81
2022-08-16T00:07:26.705Z,60.75
2022-08-16T00:09:55.771Z,61.10
2022-08-16T00:12:23.698Z,60.54
2022-08-16T00:14:50.116Z,60.68
2022-08-16T00:17:18.543Z,61.05
2022-08-16T00:19:45.703Z,60.73
2022-08-16T00:22:15.186Z,61.02
2022-08-16T00:24:44.932Z,61.04
2022-08-16T00:27:13.201Z,61.14
2022-08-16T00:29:39.720Z,61.19
2022-08-16T00:32:07.407Z,60.77
2022-08-16T00:34:43.356Z,60.77
2022-08-16T00:37:20.600Z,60.92
2022-08-16T00:39:47.667Z,60.92
2022-08-16T00:42:14.366Z,61.24
2022-08-16T00:45:06.256Z,60.81
2022-08-16T00:47:33.199Z,60.52
2022-08-16T00:50:01.431Z,60.86
2022-08-16T00:52:30.167Z,61.10
2022-08-16T00:54:57.222Z,61.26
2022-08-16T00:57:23.982Z,61.05
2022-08-16T00:59:54.703Z,60.91
2022-08-16T01:02:31.377Z,60.63
2022-08-16T01:05:10.944Z,60.98
2022-08-16T01:07:52.082Z,60.75
2022-08-16T01:10:19.672Z,61.02
2022-08-16T01:12:46.311Z,61.01
2022-08-16T01:15:14.357Z,60.88
2022-08-16T01:17:42.178Z,61.13
2022-08-16T01:20:24.404Z,60.77
2022-08-16T01:22:52.316Z,61.12
2022-08-16T01:25:19.103Z,60.87
2022-08-16T01:27:48.067Z,60.78
2022-08-16T01:30:20.072Z,61.18
2022-08-16T01:32:56.450Z,60.64
2022-08-16T01:35:30.090Z,61.03
2022-08-16T01:38:01.855Z,60.74
2022-08-16T01:40:28.393Z,60.80
2022-08-16T01:42:55.622Z,61.04
2022-08-16T01:45:22.617Z,60.61
2022-08-16T01:47:50.855Z,60.93
2022-08-16T01:50:42.245Z,60.97
2022-08-16T01:53:04.103Z,60.76
2022-08-16T01:55:35.625Z,60.72
2022-08-16T01:58:02.231Z,61.11
2022-08-16T02:00:29.943Z,60.75
2022-08-16T02:02:56.530Z,61.08
2022-08-16T02:05:23.581Z,60.92
2022-08-16T02:07:51.877Z,60.63
2022-08-16T02:10:18.738Z,60.67
2022-08-16T02:12:51.900Z,60.98
2022-08-16T02:15:24.803Z,60.57
2022-08-16T02:17:52.580Z,60.48
2022-08-16T02:20:19.103Z,60.72
2022-08-16T02:22:53.232Z,60.56
2022-08-16T02:25:21.690Z,60.54
2022-08-16T02:27:50.742Z,60.39
2022-08-16T02:30:37.130Z,60.57
2022-08-16T02:33:04.480Z,60.31
2022-08-16T02:35:32.103Z,60.76
2022-08-16T02:38:08.615Z,60.56
2022-08-16T02:40:35.500Z,60.51
2022-08-16T02:43:02.702Z,60.41
2022-08-16T02:45:35.413Z,60.50
2022-08-16T02:48:29.502Z,60.55
2022-08-16T02:50:54.854Z,60.64
2022-08-16T02:53:34.583Z,60.17
2022-08-16T02:56:01.842Z,60.88
2022-08-16T02:58:28.218Z,60.46
2022-08-16T03:00:55.947Z,60.36
2022-08-16T03:03:23.620Z,60.77
2022-08-16T03:05:52.394Z,60.68
2022-08-16T03:08:51.874Z,60.51
2022-08-16T03:11:06.229Z,60.28
2022-08-16T03:13:43.373Z,60.69
2022-08-16T03:16:38.130Z,60.26
2022-08-16T03:19:02.145Z,60.53
2022-08-16T03:21:28.583Z,60.52
2022-08-16T03:24:04.917Z,60.53
2022-08-16T03:26:31.532Z,60.26
2022-08-16T03:28:58.389Z,60.50
2022-08-16T03:31:25.882Z,60.29
2022-08-16T03:34:01.311Z,60.58
2022-08-16T03:36:30.734Z,60.28
2022-08-16T03:38:59.393Z,60.21
2022-08-16T03:41:29.475Z,60.73
2022-08-16T03:44:12.271Z,60.74
2022-08-16T03:46:58.555Z,60.55
2022-08-16T03:49:35.771Z,60.65
2022-08-16T03:52:04.796Z,60.52
2022-08-16T03:54:31.471Z,60.34
2022-08-16T03:56:58.744Z,60.39
2022-08-16T03:59:25.309Z,60.59
2022-08-16T04:01:53.540Z,60.51
2022-08-16T04:04:25.015Z,60.58
2022-08-16T04:06:59.377Z,60.71
2022-08-16T04:09:25.709Z,60.54
2022-08-16T04:11:52.761Z,60.52
2022-08-16T04:14:33.314Z,60.64
2022-08-16T04:16:59.961Z,60.46
2022-08-16T04:19:31.535Z,60.28
2022-08-16T04:21:58.445Z,60.16
2022-08-16T04:24:28.940Z,60.36
2022-08-16T04:26:55.720Z,60.46
2022-08-16T04:29:24.937Z,60.58
2022-08-16T04:31:56.836Z,60.58
2022-08-16T04:34:24.893Z,60.59
2022-08-16T04:36:52.913Z,60.49
2022-08-16T04:39:20.129Z,60.64
2022-08-16T04:41:50.474Z,60.57
2022-08-16T04:44:52.647Z,59.79
2022-08-16T04:47:21.109Z,60.22
2022-08-16T04:49:50.174Z,60.16
2022-08-16T04:52:33.790Z,60.50
2022-08-16T04:55:03.485Z,60.95
2022-08-16T04:57:30.465Z,60.65
2022-08-16T04:59:56.835Z,61.22
2022-08-16T05:02:41.477Z,61.13
2022-08-16T05:05:09.179Z,61.38
2022-08-16T05:07:58.258Z,61.30
2022-08-16T05:10:26.491Z,61.23
2022-08-16T05:12:52.900Z,61.22
2022-08-16T05:15:20.505Z,60.91
2022-08-16T05:17:48.733Z,61.48
2022-08-16T05:20:39.403Z,61.28
2022-08-16T05:23:11.919Z,61.03
2022-08-16T05:25:41.135Z,60.85
2022-08-16T05:28:14.984Z,61.17
2022-08-16T05:30:41.555Z,60.87
2022-08-16T05:33:16.325Z,61.16
2022-08-16T05:35:43.483Z,61.00
2022-08-16T05:38:32.623Z,61.17
2022-08-16T05:40:59.672Z,61.23
2022-08-16T05:43:26.633Z,61.14
2022-08-16T05:45:53.906Z,61.05
2022-08-16T05:48:21.305Z,61.10
2022-08-16T05:50:53.398Z,60.85
2022-08-16T05:53:19.796Z,60.72
2022-08-16T05:55:48.551Z,61.12
2022-08-16T05:58:31.644Z,60.93
2022-08-16T06:01:00.508Z,60.91
2022-08-16T06:03:30.508Z,61.09
2022-08-16T06:06:00.918Z,61.15
2022-08-16T06:08:32.457Z,61.29
2022-08-16T06:11:10.321Z,61.44
2022-08-16T06:13:37.113Z,61.02
2022-08-16T06:16:08.697Z,61.39
2022-08-16T06:18:45.078Z,61.10
2022-08-16T06:21:11.685Z,61.02
2022-08-16T06:23:40.767Z,60.87
2022-08-16T06:26:08.072Z,60.99
2022-08-16T06:28:35.992Z,61.43
2022-08-16T06:31:03.466Z,61.19
2022-08-16T06:33:41.869Z,61.40
2022-08-16T06:36:08.563Z,61.19
2022-08-16T06:38:35.063Z,61.27
2022-08-16T06:41:01.419Z,61.15
2022-08-16T06:43:28.940Z,61.19
2022-08-16T06:45:55.335Z,61.33
2022-08-16T06:48:32.738Z,61.44
2022-08-16T06:50:59.964Z,61.16
2022-08-16T06:53:26.453Z,61.36
2022-08-16T06:55:56.117Z,61.05
2022-08-16T06:58:31.244Z,61.25
2022-08-16T07:00:59.670Z,61.11
2022-08-16T07:03:28.343Z,61.01
2022-08-16T07:05:58.648Z,61.41
2022-08-16T07:08:25.002Z,60.91
2022-08-16T07:10:53.857Z,61.63
2022-08-16T07:13:51.279Z,60.94
2022-08-16T07:16:07.075Z,61.56
2022-08-16T07:18:33.573Z,61.09
2022-08-16T07:21:02.230Z,61.36
2022-08-16T07:23:37.152Z,60.99
2022-08-16T07:26:05.610Z,61.01
2022-08-16T07:28:32.722Z,61.17
2022-08-16T07:30:59.292Z,60.88
2022-08-16T07:33:53.571Z,60.91
2022-08-16T07:36:13.671Z,61.26
2022-08-16T07:38:48.665Z,61.28
2022-08-16T07:41:16.427Z,60.86
2022-08-16T07:43:43.278Z,61.14
2022-08-16T07:46:37.641Z,61.13
2022-08-16T07:48:56.509Z,61.10
2022-08-16T07:51:29.065Z,60.59
2022-08-16T07:54:02.466Z,60.93
2022-08-16T07:56:37.086Z,61.23
2022-08-16T07:59:03.936Z,61.60
2022-08-16T08:01:31.246Z,61.48
2022-08-16T08:03:57.960Z,61.45
2022-08-16T08:06:24.850Z,61.41
2022-08-16T08:08:52.821Z,61.11
2022-08-16T08:11:24.107Z,60.80
2022-08-16T08:13:54.881Z,60.98
2022-08-16T08:16:21.692Z,60.99
2022-08-16T08:19:00.514Z,60.95
2022-08-16T08:22:00.863Z,60.98
2022-08-16T08:24:15.084Z,61.12
2022-08-16T08:26:42.846Z,60.79
2022-08-16T08:29:09.570Z,61.09
2022-08-16T08:31:36.145Z,61.07
2022-08-16T08:34:04.769Z,60.68
2022-08-16T08:36:32.927Z,60.71
2022-08-16T08:39:00.117Z,60.77
2022-08-16T08:41:28.358Z,61.13
2022-08-16T08:43:55.042Z,60.63
2022-08-16T08:46:22.341Z,60.69
2022-08-16T08:48:59.743Z,60.84
2022-08-16T08:51:27.465Z,60.58
2022-08-16T08:53:58.559Z,60.63
2022-08-16T08:56:25.852Z,60.54
2022-08-16T08:58:54.047Z,61.03
2022-08-16T09:01:31.490Z,60.63
2022-08-16T09:04:02.751Z,60.33
2022-08-16T09:06:30.994Z,60.83
2022-08-16T09:09:02.900Z,60.54
2022-08-16T09:11:40.796Z,60.40
2022-08-16T09:14:07.865Z,60.35
2022-08-16T09:17:02.798Z,60.40
2022-08-16T09:19:32.185Z,60.39
2022-08-16T09:22:00.017Z,60.56
2022-08-16T09:24:47.109Z,60.60
2022-08-16T09:27:13.631Z,60.20
2022-08-16T09:29:45.231Z,60.13
2022-08-16T09:32:12.252Z,60.25
2022-08-16T09:34:38.734Z,60.33
2022-08-16T09:37:18.093Z,60.66
2022-08-16T09:39:50.314Z,60.27
2022-08-16T09:42:16.907Z,60.47
2022-08-16T09:45:12.200Z,60.46
2022-08-16T09:47:57.120Z,60.46
2022-08-16T09:50:22.612Z,60.47
2022-08-16T09:52:49.736Z,60.30
2022-08-16T09:55:16.240Z,60.25
2022-08-16T09:57:42.612Z,60.31
2022-08-16T10:00:44.582Z,60.67
2022-08-16T10:03:06.072Z,60.70
2022-08-16T10:05:35.644Z,60.11
2022-08-16T10:08:01.980Z,60.57
2022-08-16T10:10:48.542Z,60.22
2022-08-16T10:13:16.336Z,60.25
2022-08-16T10:15:43.050Z,60.62
2022-08-16T10:18:56.093Z,60.10
2022-08-16T10:21:06.244Z,60.46
2022-08-16T10:23:35.313Z,60.57
2022-08-16T10:27:17.379Z,60.54
2022-08-16T10:28:48.049Z,60.20
2022-08-16T10:31:43.337Z,60.18
2022-08-16T10:34:30.875Z,60.46
2022-08-16T10:36:54.539Z,60.50
2022-08-16T10:39:21.037Z,60.33
2022-08-16T10:41:47.724Z,60.45
2022-08-16T10:44:14.132Z,60.53
2022-08-16T10:46:43.955Z,60.44
2022-08-16T10:49:16.662Z,60.46
2022-08-16T10:52:02.954Z,60.13
2022-08-16T10:54:31.052Z,60.09
2022-08-16T10:56:57.531Z,60.50
2022-08-16T10:59:38.368Z,60.08
2022-08-16T11:02:59.579Z,60.24
2022-08-16T11:05:12.023Z,60.12
2022-08-16T11:07:52.073Z,60.42
2022-08-16T11:10:20.754Z,60.31
2022-08-16T11:12:48.116Z,60.11
2022-08-16T11:15:19.283Z,60.52
2022-08-16T11:17:46.301Z,60.35
2022-08-16T11:20:41.052Z,59.90
2022-08-16T11:23:08.805Z,60.12
2022-08-16T11:31:09.248Z,60.12
2022-08-16T11:33:55.543Z,60.51
2022-08-16T11:36:24.751Z,60.04
2022-08-16T11:38:57.463Z,60.02
2022-08-16T11:41:24.859Z,60.05
2022-08-16T11:43:52.866Z,60.14
2022-08-16T11:46:45.257Z,60.14
2022-08-16T11:49:09.885Z,60.41
2022-08-16T11:51:39.496Z,60.24
2022-08-16T23:32:43.531Z,59.05
2022-08-16T23:35:09.959Z,58.89
2022-08-16T23:37:36.380Z,59.07
2022-08-16T23:40:03.240Z,58.69
2022-08-16T23:42:44.197Z,58.74
2022-08-16T23:45:16.464Z,58.83
2022-08-16T23:47:42.901Z,58.58
2022-08-16T23:50:09.526Z,58.46
2022-08-16T23:52:42.263Z,58.80
2022-08-16T23:55:20.479Z,58.58
2022-08-16T23:57:46.913Z,58.78
